Time;durP1;ratioP1;P1;durP2;ratioP2;P2;SDS_P1;SDS_P2;PMS_P1;PMS_P2;Temp;Humidity;BMP_temperature;BMP_pressure;BME280_temperature;BME280_humidity;BME280_pressure;Samples;Min_cycle;Max_cycle;Signal;HPM_P1;HPM_P2
2022/12/20 00:01:49;;;;;;;3.40;1.30;;;11.40;99.90;;;;;;5095582;28;20188;-79
2022/12/20 00:04:15;;;;;;;3.73;1.80;;;11.30;99.90;;;;;;5078035;28;20204;-79
2022/12/20 00:06:40;;;;;;;2.17;1.50;;;11.20;99.90;;;;;;5095241;28;20230;-80
2022/12/20 00:09:08;;;;;;;2.80;1.77;;;11.10;99.90;;;;;;5095639;28;20655;-79
2022/12/20 00:11:35;;;;;;;3.33;1.75;;;11.10;99.90;;;;;;5095866;28;20180;-84
2022/12/20 00:14:00;;;;;;;2.90;1.80;;;11.10;99.90;;;;;;5095655;28;20214;-84
2022/12/20 00:16:27;;;;;;;2.20;1.50;;;11.00;99.90;;;;;;5095758;28;20267;-84
2022/12/20 00:18:56;;;;;;;2.67;1.30;;;11.00;99.90;;;;;;5077323;28;20192;-84
2022/12/20 00:21:22;;;;;;;2.15;1.95;;;11.00;99.90;;;;;;5095339;28;20180;-85
2022/12/20 00:23:48;;;;;;;1.67;1.58;;;11.00;99.90;;;;;;5095381;28;20245;-84
2022/12/20 00:26:17;;;;;;;2.55;1.65;;;11.00;99.90;;;;;;5077035;28;20211;-84
2022/12/20 00:28:44;;;;;;;3.90;2.20;;;10.90;99.90;;;;;;5077062;28;20184;-85
2022/12/20 00:31:11;;;;;;;3.05;1.67;;;10.90;99.90;;;;;;5095561;28;20179;-84
2022/12/20 00:33:38;;;;;;;2.03;1.65;;;10.90;99.90;;;;;;5094728;28;20219;-84
2022/12/20 00:36:05;;;;;;;2.60;1.40;;;10.90;99.90;;;;;;5095432;28;20176;-84
2022/12/20 00:38:31;;;;;;;1.80;1.55;;;10.90;99.90;;;;;;5095095;28;20180;-84
2022/12/20 00:40:59;;;;;;;2.80;2.10;;;10.90;99.90;;;;;;5094654;28;20249;-84
2022/12/20 00:43:25;;;;;;;2.60;1.85;;;10.80;99.90;;;;;;5094704;28;20184;-84
2022/12/20 00:45:51;;;;;;;1.80;1.70;;;10.80;99.90;;;;;;5095117;28;20314;-84
2022/12/20 00:48:16;;;;;;;3.33;2.00;;;10.80;99.90;;;;;;5077108;28;20891;-84
2022/12/20 00:50:42;;;;;;;2.40;1.40;;;10.70;99.90;;;;;;5060434;28;20188;-84
2022/12/20 00:53:09;;;;;;;3.97;2.17;;;10.80;99.90;;;;;;5060195;28;20188;-85
2022/12/20 00:55:39;;;;;;;2.88;1.63;;;10.80;99.90;;;;;;5077006;28;20192;-84
2022/12/20 00:58:05;;;;;;;2.05;1.42;;;10.80;99.90;;;;;;5094854;28;20177;-84
2022/12/20 01:00:31;;;;;;;2.70;1.70;;;10.80;99.90;;;;;;5094689;28;20603;-85
2022/12/20 01:02:56;;;;;;;2.73;2.07;;;10.90;99.90;;;;;;5060007;28;20226;-84
2022/12/20 01:05:22;;;;;;;3.50;1.93;;;10.90;99.90;;;;;;5094915;28;20211;-85
2022/12/20 01:07:47;;;;;;;3.00;2.20;;;10.90;99.90;;;;;;5094570;28;20231;-85
2022/12/20 01:10:13;;;;;;;2.53;1.80;;;10.80;99.90;;;;;;5076761;28;20176;-85
2022/12/20 01:12:39;;;;;;;1.80;1.70;;;10.80;99.90;;;;;;5076608;28;20274;-84
2022/12/20 01:15:05;;;;;;;1.87;1.70;;;10.80;99.90;;;;;;5094199;28;20218;-84
2022/12/20 01:17:31;;;;;;;2.28;1.83;;;10.80;99.90;;;;;;5094538;28;20184;-84
2022/12/20 01:19:56;;;;;;;3.57;1.90;;;10.70;99.90;;;;;;5094568;28;20578;-84
2022/12/20 01:22:22;;;;;;;3.03;1.90;;;10.70;99.90;;;;;;5094773;28;20692;-84
2022/12/20 01:24:47;;;;;;;2.90;2.03;;;10.70;99.90;;;;;;5059639;28;20222;-85
2022/12/20 01:27:13;;;;;;;2.43;1.50;;;10.70;99.90;;;;;;5060017;28;20545;-85
2022/12/20 01:29:39;;;;;;;2.47;1.80;;;10.70;99.90;;;;;;5059247;28;20193;-84
2022/12/20 01:32:04;;;;;;;3.60;2.17;;;10.70;99.90;;;;;;5094689;28;20180;-85
2022/12/20 01:34:30;;;;;;;1.67;1.53;;;10.70;99.90;;;;;;5076250;28;20346;-85
2022/12/20 01:36:55;;;;;;;4.77;2.13;;;10.70;99.90;;;;;;5076181;28;20394;-84
2022/12/20 01:39:21;;;;;;;5.73;2.10;;;10.70;99.90;;;;;;5094118;28;20195;-84
2022/12/20 01:41:46;;;;;;;7.53;2.00;;;10.70;99.90;;;;;;5076120;28;20188;-83
2022/12/20 01:44:15;;;;;;;3.17;1.90;;;10.70;99.90;;;;;;5059757;28;20192;-84
2022/12/20 01:46:41;;;;;;;2.28;1.88;;;10.70;99.90;;;;;;5094294;28;20177;-84
2022/12/20 01:49:35;;;;;;;2.13;1.80;;;10.70;99.90;;;;;;5076531;28;20180;-85
2022/12/20 01:52:12;;;;;;;2.05;1.85;;;10.70;99.90;;;;;;5083932;28;20429;-84
2022/12/20 01:54:47;;;;;;;3.75;1.95;;;10.70;99.90;;;;;;5098245;28;20210;-84
2022/12/20 01:57:23;;;;;;;3.30;2.25;;;10.70;99.90;;;;;;5079939;28;20550;-84
2022/12/20 01:59:51;;;;;;;1.85;1.70;;;10.80;99.90;;;;;;5098435;28;20230;-84
2022/12/20 02:02:17;;;;;;;3.30;2.10;;;10.80;99.90;;;;;;5079922;28;20237;-84
2022/12/20 02:04:42;;;;;;;2.93;2.00;;;10.80;99.90;;;;;;5079703;28;20643;-84
2022/12/20 02:07:12;;;;;;;2.53;1.90;;;10.70;99.90;;;;;;5046097;28;20531;-85
2022/12/20 02:09:38;;;;;;;1.88;1.75;;;10.70;99.90;;;;;;5097814;28;20317;-84
2022/12/20 02:12:20;;;;;;;4.22;1.77;;;10.60;99.90;;;;;;5080054;28;20183;-84
2022/12/20 02:14:48;;;;;;;3.67;2.22;;;10.60;99.90;;;;;;5079689;28;20250;-84
2022/12/20 02:17:31;;;;;;;2.35;2.15;;;10.60;99.90;;;;;;5097936;28;20183;-85
2022/12/20 02:20:34;;;;;;;2.20;1.98;;;10.50;99.90;;;;;;5098035;28;20191;-85
2022/12/20 02:23:41;;;;;;;3.75;2.22;;;10.50;99.90;;;;;;5097675;28;20184;-85
2022/12/20 02:26:16;;;;;;;2.30;2.10;;;10.40;99.90;;;;;;5079242;28;20245;-85
2022/12/20 02:28:53;;;;;;;5.80;2.97;;;10.40;99.90;;;;;;5097615;28;20183;-85
2022/12/20 02:31:25;;;;;;;2.17;1.70;;;10.30;99.90;;;;;;5097524;28;20533;-85
2022/12/20 02:33:53;;;;;;;2.50;2.30;;;10.30;99.90;;;;;;5097263;28;20222;-85
2022/12/20 02:36:19;;;;;;;8.10;2.92;;;10.20;99.90;;;;;;5079224;28;20646;-85
2022/12/20 02:38:44;;;;;;;3.23;2.40;;;10.20;99.90;;;;;;5079328;28;20226;-85
2022/12/20 02:41:17;;;;;;;5.63;2.97;;;10.20;99.90;;;;;;5097664;28;20659;-85
2022/12/20 02:46:33;;;;;;;2.65;2.20;;;10.20;99.90;;;;;;5097363;28;20215;-85
2022/12/20 02:49:03;;;;;;;5.30;2.55;;;10.20;99.90;;;;;;5079385;28;20313;-84
2022/12/20 02:51:30;;;;;;;6.28;2.45;;;10.20;99.90;;;;;;5097632;28;20180;-85
2022/12/20 02:53:57;;;;;;;4.47;2.88;;;10.20;99.90;;;;;;5079270;28;20208;-84
2022/12/20 02:56:32;;;;;;;3.00;2.20;;;10.20;99.90;;;;;;5079309;28;20188;-85
2022/12/20 02:59:10;;;;;;;5.70;2.28;;;10.20;99.90;;;;;;5097159;28;20180;-84
2022/12/20 03:01:41;;;;;;;3.38;2.33;;;10.20;99.90;;;;;;5078823;28;20188;-84
2022/12/20 03:04:07;;;;;;;2.40;2.20;;;10.20;99.90;;;;;;5095101;28;20556;-85
2022/12/20 03:06:33;;;;;;;3.38;2.40;;;10.20;99.90;;;;;;5093096;28;20223;-85
2022/12/20 03:08:58;;;;;;;3.00;2.47;;;10.20;99.90;;;;;;5075712;28;20214;-86
2022/12/20 03:11:24;;;;;;;2.80;1.93;;;10.20;99.90;;;;;;5074623;28;20215;-86
2022/12/20 03:13:50;;;;;;;4.17;2.53;;;10.20;99.90;;;;;;5091745;28;20219;-85
2022/12/20 03:16:15;;;;;;;3.40;2.30;;;10.20;99.90;;;;;;5059517;28;20389;-85
2022/12/20 03:18:41;;;;;;;3.23;2.13;;;10.20;99.90;;;;;;5074230;28;20184;-84
2022/12/20 03:21:07;;;;;;;2.30;2.10;;;10.20;99.90;;;;;;5097091;28;20176;-84
2022/12/20 03:23:32;;;;;;;2.23;2.03;;;10.30;99.90;;;;;;5096419;28;20188;-84
2022/12/20 03:25:58;;;;;;;3.60;1.90;;;10.30;99.90;;;;;;5078453;28;20188;-84
2022/12/20 03:28:24;;;;;;;2.93;2.13;;;10.20;99.90;;;;;;5096019;28;20188;-85
2022/12/20 03:30:49;;;;;;;1.93;1.77;;;10.30;99.90;;;;;;5095789;28;20207;-84
2022/12/20 03:33:15;;;;;;;5.73;2.47;;;10.20;99.90;;;;;;5096024;28;20238;-84
2022/12/20 03:35:41;;;;;;;3.00;2.17;;;10.20;99.90;;;;;;5061171;28;20282;-83
2022/12/20 03:38:06;;;;;;;2.80;1.80;;;10.30;99.90;;;;;;5096853;28;20472;-83
2022/12/20 03:40:32;;;;;;;2.00;1.90;;;10.30;99.90;;;;;;5096555;28;20207;-87
2022/12/20 03:42:58;;;;;;;2.05;1.90;;;10.20;99.90;;;;;;5096784;28;20267;-84
2022/12/20 03:45:23;;;;;;;8.53;2.50;;;10.10;99.90;;;;;;5061816;28;20226;-83
2022/12/20 03:47:49;;;;;;;3.00;2.37;;;10.10;99.90;;;;;;5096337;28;20233;-83
2022/12/20 03:50:15;;;;;;;3.63;2.20;;;10.00;99.90;;;;;;5096291;28;20172;-84
2022/12/20 03:52:40;;;;;;;4.13;2.80;;;10.00;99.90;;;;;;5061577;28;20180;-84
2022/12/20 03:55:07;;;;;;;6.30;2.30;;;10.00;99.90;;;;;;5077758;28;20688;-83
2022/12/20 03:57:32;;;;;;;4.60;1.90;;;10.00;99.90;;;;;;5044986;28;20245;-84
2022/12/20 03:59:58;;;;;;;3.60;2.00;;;10.00;99.90;;;;;;5095901;28;20263;-83
2022/12/20 04:02:23;;;;;;;2.43;1.90;;;9.90;99.90;;;;;;5095968;28;20192;-83
2022/12/20 04:04:49;;;;;;;3.63;2.20;;;9.90;99.90;;;;;;5078033;28;20188;-83
2022/12/20 04:07:15;;;;;;;3.60;2.50;;;9.90;99.90;;;;;;5077774;28;20585;-82
2022/12/20 04:09:40;;;;;;;4.13;2.23;;;9.80;99.90;;;;;;5095792;28;20239;-84
2022/12/20 04:12:06;;;;;;;4.37;2.60;;;9.80;99.90;;;;;;5077921;28;20412;-84
2022/12/20 04:14:32;;;;;;;6.30;2.33;;;9.70;99.90;;;;;;5077979;28;20729;-83
2022/12/20 04:16:58;;;;;;;4.40;2.60;;;9.60;99.90;;;;;;5095815;28;20415;-83
2022/12/20 04:19:24;;;;;;;3.07;2.53;;;9.60;99.90;;;;;;5096490;28;20240;-83
2022/12/20 04:21:49;;;;;;;2.83;2.57;;;9.60;99.90;;;;;;5078000;28;20419;-83
2022/12/20 04:24:15;;;;;;;3.07;2.77;;;9.50;99.90;;;;;;5077950;28;20275;-83
2022/12/20 04:26:41;;;;;;;5.60;2.60;;;9.50;99.90;;;;;;5095533;28;20176;-83
2022/12/20 04:29:06;;;;;;;5.50;2.80;;;9.40;99.90;;;;;;5077841;28;20497;-83
2022/12/20 04:31:32;;;;;;;4.70;2.60;;;9.40;99.90;;;;;;5077703;28;20176;-83
2022/12/20 04:33:58;;;;;;;2.60;2.40;;;9.40;99.90;;;;;;5077280;28;20227;-83
2022/12/20 04:36:23;;;;;;;2.50;2.23;;;9.40;99.90;;;;;;5077452;28;20189;-83
2022/12/20 04:38:49;;;;;;;3.63;2.40;;;9.40;99.90;;;;;;5077198;28;20652;-83
2022/12/20 04:41:21;;;;;;;2.70;2.43;;;9.40;99.90;;;;;;5061261;28;20188;-83
2022/12/20 04:43:55;;;;;;;4.50;2.97;;;9.30;99.90;;;;;;5077410;28;20192;-83
2022/12/20 04:46:22;;;;;;;3.22;2.72;;;9.30;99.90;;;;;;5095447;28;20168;-83
2022/12/20 04:48:48;;;;;;;4.55;3.10;;;9.40;99.90;;;;;;5077368;28;20188;-83
2022/12/20 04:51:14;;;;;;;4.27;2.80;;;9.40;99.90;;;;;;5095716;28;20557;-83
2022/12/20 04:53:46;;;;;;;2.92;2.42;;;9.40;99.90;;;;;;5060597;28;20235;-83
2022/12/20 04:56:22;;;;;;;5.15;2.35;;;9.40;99.90;;;;;;5095617;28;20218;-83
2022/12/20 04:58:50;;;;;;;3.45;2.88;;;9.40;99.90;;;;;;5095290;28;20164;-83
2022/12/20 05:01:17;;;;;;;3.95;2.83;;;9.40;99.90;;;;;;5095736;28;20184;-83
2022/12/20 05:03:43;;;;;;;4.40;2.45;;;9.40;99.90;;;;;;5095138;28;20204;-83
2022/12/20 05:06:09;;;;;;;3.25;2.20;;;9.40;99.90;;;;;;5077398;28;20188;-81
2022/12/20 05:08:36;;;;;;;4.50;2.97;;;9.40;99.90;;;;;;5058763;28;20200;-84
2022/12/20 05:11:02;;;;;;;3.95;2.63;;;9.40;99.90;;;;;;5073350;28;20188;-83
2022/12/20 05:13:27;;;;;;;6.35;2.67;;;9.40;99.90;;;;;;5092137;28;20210;-83
2022/12/20 05:15:55;;;;;;;3.83;2.87;;;9.40;99.90;;;;;;5075034;28;20202;-83
2022/12/20 05:18:21;;;;;;;3.28;2.40;;;9.40;99.90;;;;;;5095427;28;20178;-82
2022/12/20 05:20:47;;;;;;;4.35;2.55;;;9.40;99.90;;;;;;5077280;28;20579;-83
2022/12/20 05:28:41;;;;;;;3.92;2.50;;;9.50;99.90;;;;;;5092622;28;20176;-83
2022/12/20 05:31:07;;;;;;;3.60;2.50;;;9.40;99.90;;;;;;5091750;28;20188;-83
2022/12/20 05:33:33;;;;;;;3.20;2.43;;;9.40;99.90;;;;;;5074058;28;20219;-84
2022/12/20 05:35:58;;;;;;;3.30;2.47;;;9.50;99.90;;;;;;5057863;28;20195;-83
2022/12/20 05:38:24;;;;;;;6.60;2.33;;;9.50;99.90;;;;;;5055501;28;20230;-82
2022/12/20 05:40:50;;;;;;;3.93;2.50;;;9.50;99.90;;;;;;5093092;28;20278;-83
2022/12/20 05:43:17;;;;;;;3.58;2.40;;;9.50;99.90;;;;;;5076702;28;20190;-83
2022/12/20 05:45:48;;;;;;;3.85;2.50;;;9.50;99.90;;;;;;5094553;28;20264;-83
2022/12/20 05:48:15;;;;;;;3.00;2.13;;;9.50;99.90;;;;;;5077273;28;20632;-83
2022/12/20 05:50:42;;;;;;;4.57;1.83;;;9.50;99.90;;;;;;5077087;28;20602;-85
2022/12/20 05:53:09;;;;;;;2.88;2.20;;;9.60;99.90;;;;;;5094999;28;20259;-83
2022/12/20 05:55:35;;;;;;;2.95;2.47;;;9.60;99.90;;;;;;5077244;28;20187;-83
2022/12/20 05:58:01;;;;;;;4.03;2.40;;;9.60;99.90;;;;;;5094442;28;20176;-83
2022/12/20 06:00:26;;;;;;;2.23;1.83;;;9.70;99.90;;;;;;5094689;28;20426;-83
2022/12/20 06:02:52;;;;;;;7.60;2.27;;;9.70;99.90;;;;;;5094570;28;20582;-83
2022/12/20 06:05:18;;;;;;;2.90;2.57;;;9.70;99.90;;;;;;5095279;28;20199;-82
2022/12/20 06:07:44;;;;;;;3.53;2.10;;;9.70;99.90;;;;;;5076299;28;20228;-82
2022/12/20 06:10:10;;;;;;;4.53;2.27;;;9.70;99.90;;;;;;5077072;28;20188;-82
2022/12/20 06:12:36;;;;;;;4.25;2.58;;;9.70;99.90;;;;;;5060224;28;20212;-83
2022/12/20 06:15:02;;;;;;;2.10;1.80;;;9.70;99.90;;;;;;5059515;28;20304;-83
2022/12/20 06:17:27;;;;;;;2.50;2.30;;;9.80;99.90;;;;;;5094722;28;20247;-83
2022/12/20 06:19:53;;;;;;;4.13;2.60;;;9.80;99.90;;;;;;5094560;28;20532;-82
2022/12/20 06:22:18;;;;;;;2.83;2.37;;;9.80;99.90;;;;;;5076752;28;20216;-83
2022/12/20 06:24:44;;;;;;;3.00;2.27;;;9.80;99.90;;;;;;5076445;28;20237;-83
2022/12/20 06:27:10;;;;;;;4.00;2.60;;;9.80;99.90;;;;;;5076502;28;20238;-82
2022/12/20 06:29:36;;;;;;;4.18;2.83;;;9.90;99.90;;;;;;5094661;28;20183;-82
2022/12/20 06:32:04;;;;;;;10.07;2.20;;;9.90;99.90;;;;;;5093819;28;20199;-83
2022/12/20 06:34:30;;;;;;;2.60;2.40;;;9.90;99.90;;;;;;5076662;28;20281;-82
2022/12/20 06:36:56;;;;;;;5.57;2.00;;;9.90;99.90;;;;;;5094352;28;20180;-82
2022/12/20 06:39:21;;;;;;;2.13;2.00;;;9.90;99.90;;;;;;5094752;28;20271;-82
2022/12/20 06:41:47;;;;;;;2.70;2.50;;;9.90;99.90;;;;;;5061982;28;20217;-84
2022/12/20 06:44:12;;;;;;;2.53;2.23;;;9.90;99.90;;;;;;5094987;28;20275;-83
2022/12/20 06:46:38;;;;;;;3.33;2.57;;;9.90;99.90;;;;;;5095349;28;20184;-83
2022/12/20 06:49:03;;;;;;;2.60;2.40;;;9.90;99.90;;;;;;5094779;28;20177;-83
2022/12/20 06:51:29;;;;;;;4.73;2.57;;;9.90;99.90;;;;;;5076522;28;20206;-83
2022/12/20 06:53:55;;;;;;;4.00;2.37;;;10.00;99.90;;;;;;5076386;28;20219;-84
2022/12/20 06:56:20;;;;;;;2.87;2.10;;;9.90;99.90;;;;;;5076375;28;20188;-85
2022/12/20 06:58:46;;;;;;;3.37;2.20;;;10.00;99.90;;;;;;5062730;28;20188;-83
2022/12/20 07:01:12;;;;;;;2.17;1.97;;;9.90;99.90;;;;;;5079674;28;20371;-82
2022/12/20 07:03:37;;;;;;;2.13;1.80;;;10.00;99.90;;;;;;5079480;28;20200;-83
2022/12/20 07:06:03;;;;;;;3.17;1.87;;;10.00;99.90;;;;;;5079041;28;20263;-83
2022/12/20 07:08:28;;;;;;;2.80;2.50;;;10.00;99.90;;;;;;5059379;28;20253;-82
2022/12/20 07:10:55;;;;;;;2.33;2.13;;;10.00;99.90;;;;;;5058593;28;20185;-82
2022/12/20 07:13:20;;;;;;;3.40;2.70;;;10.00;99.90;;;;;;5042403;28;20212;-82
2022/12/20 07:15:46;;;;;;;3.33;2.47;;;10.00;99.90;;;;;;5076539;28;20383;-82
2022/12/20 07:18:12;;;;;;;2.80;2.47;;;9.90;99.90;;;;;;5076944;28;20243;-83
2022/12/20 07:20:38;;;;;;;3.43;2.60;;;9.90;99.90;;;;;;5059099;28;20246;-82
2022/12/20 07:23:03;;;;;;;4.40;2.65;;;9.90;99.90;;;;;;5076697;28;20189;-82
2022/12/20 07:25:29;;;;;;;4.63;2.43;;;9.90;99.90;;;;;;5058837;28;20184;-82
2022/12/20 07:27:54;;;;;;;2.17;1.97;;;9.80;99.90;;;;;;5042052;28;20185;-83
2022/12/20 07:30:20;;;;;;;4.63;2.77;;;9.70;99.90;;;;;;5058409;28;20267;-82
2022/12/20 07:32:47;;;;;;;2.83;2.37;;;9.70;99.90;;;;;;5059146;28;20211;-88
2022/12/20 07:35:13;;;;;;;6.03;3.67;;;9.70;99.90;;;;;;5058655;28;20471;-84
2022/12/20 07:37:39;;;;;;;5.32;2.10;;;9.70;99.90;;;;;;5076263;28;20216;-83
2022/12/20 07:40:06;;;;;;;3.30;2.35;;;9.80;99.90;;;;;;5075613;28;20197;-82
2022/12/20 07:42:31;;;;;;;6.47;2.92;;;9.80;99.90;;;;;;5042377;28;20550;-82
2022/12/20 07:44:57;;;;;;;3.40;2.43;;;9.70;99.90;;;;;;5058116;28;20193;-83
2022/12/20 07:47:23;;;;;;;3.90;2.87;;;9.70;99.90;;;;;;5058432;28;20224;-83
2022/12/20 07:49:48;;;;;;;2.60;2.40;;;9.80;99.90;;;;;;5058009;28;20191;-83
2022/12/20 07:52:18;;;;;;;3.60;2.00;;;9.80;99.90;;;;;;5058105;28;20177;-83
2022/12/20 07:54:52;;;;;;;8.93;3.00;;;9.80;99.90;;;;;;5076338;28;20219;-83
2022/12/20 07:57:30;;;;;;;6.40;2.83;;;9.80;99.90;;;;;;5076542;28;20169;-83
2022/12/20 07:59:59;;;;;;;3.10;2.35;;;9.80;99.90;;;;;;5058240;28;20547;-80
2022/12/20 08:02:35;;;;;;;3.10;2.30;;;9.90;99.90;;;;;;5076302;28;20203;-79
2022/12/20 08:05:03;;;;;;;2.78;1.98;;;9.90;99.90;;;;;;5076000;28;20173;-79
2022/12/20 08:07:30;;;;;;;2.40;2.20;;;9.90;99.90;;;;;;5075999;28;20230;-79
2022/12/20 08:09:56;;;;;;;3.30;2.00;;;9.90;99.90;;;;;;5075167;28;20193;-80
2022/12/20 08:12:22;;;;;;;3.95;2.13;;;10.00;99.90;;;;;;5075588;28;20181;-80
2022/12/20 08:14:51;;;;;;;4.38;2.42;;;10.00;99.90;;;;;;5058003;28;20277;-81
2022/12/20 08:17:16;;;;;;;3.70;1.58;;;10.10;99.90;;;;;;5025986;28;20185;-80
2022/12/20 08:19:42;;;;;;;2.37;2.00;;;10.10;99.90;;;;;;5058255;28;20648;-79
2022/12/20 08:22:08;;;;;;;2.40;1.80;;;10.10;99.90;;;;;;5041083;28;20537;-79
2022/12/20 08:24:33;;;;;;;3.30;1.73;;;10.20;99.90;;;;;;5057755;28;20193;-79
2022/12/20 08:26:59;;;;;;;2.50;2.30;;;10.20;99.90;;;;;;5075161;28;20251;-79
2022/12/20 08:29:25;;;;;;;3.43;1.80;;;10.30;99.90;;;;;;5076021;28;20411;-79
2022/12/20 08:31:51;;;;;;;3.67;1.90;;;10.30;99.90;;;;;;5058298;28;20275;-81
2022/12/20 08:34:17;;;;;;;4.05;1.65;;;10.30;99.90;;;;;;5057902;28;20215;-79
2022/12/20 08:36:43;;;;;;;2.25;2.00;;;10.40;99.90;;;;;;5075285;28;20180;-81
2022/12/20 08:39:10;;;;;;;2.40;2.00;;;10.40;99.90;;;;;;5057558;28;20246;-80
2022/12/20 08:41:36;;;;;;;4.20;2.83;;;10.40;99.90;;;;;;5041134;28;20234;-79
2022/12/20 08:44:05;;;;;;;3.60;2.30;;;10.40;99.90;;;;;;5074894;28;20207;-80
2022/12/20 08:46:31;;;;;;;3.45;2.00;;;10.50;99.90;;;;;;5057685;28;20637;-79
2022/12/20 08:48:56;;;;;;;4.37;1.90;;;10.50;99.90;;;;;;5057156;28;20184;-79
2022/12/20 08:51:22;;;;;;;2.43;1.90;;;10.50;99.90;;;;;;5057102;28;20193;-82
2022/12/20 08:53:48;;;;;;;5.20;2.37;;;10.50;99.90;;;;;;5074988;28;20220;-82
2022/12/20 08:56:17;;;;;;;2.47;2.20;;;10.60;99.90;;;;;;5074423;28;20180;-83
2022/12/20 08:58:43;;;;;;;3.38;2.00;;;10.60;99.90;;;;;;5057038;28;20185;-83
2022/12/20 09:01:15;;;;;;;7.28;2.40;;;10.60;99.90;;;;;;5074727;28;20259;-83
2022/12/20 09:03:41;;;;;;;3.42;2.70;;;10.60;99.90;;;;;;5056259;28;20223;-82
2022/12/20 09:06:10;;;;;;;3.70;2.33;;;10.70;99.90;;;;;;5056705;28;20185;-83
2022/12/20 09:08:37;;;;;;;5.45;2.58;;;10.70;99.90;;;;;;5094907;28;20423;-82
2022/12/20 09:11:13;;;;;;;10.40;6.05;;;10.60;99.90;;;;;;5076824;28;20187;-82
2022/12/20 09:13:41;;;;;;;5.20;3.53;;;10.60;99.90;;;;;;5077170;28;20216;-82
2022/12/20 09:16:07;;;;;;;4.95;2.55;;;10.60;99.90;;;;;;5094640;28;20180;-82
2022/12/20 09:18:33;;;;;;;3.22;2.55;;;10.60;99.90;;;;;;5076599;28;20778;-82
2022/12/20 09:21:00;;;;;;;3.67;2.60;;;10.60;99.90;;;;;;5076375;28;20184;-82
2022/12/20 09:23:26;;;;;;;3.65;2.60;;;10.50;99.90;;;;;;5094964;28;20215;-82
2022/12/20 09:25:52;;;;;;;3.60;2.15;;;10.50;99.90;;;;;;5094564;28;20256;-82
2022/12/20 09:28:18;;;;;;;4.63;2.00;;;10.50;99.90;;;;;;5076650;28;20259;-85
2022/12/20 09:30:44;;;;;;;1.58;1.30;;;10.50;99.90;;;;;;5076440;28;20199;-83
2022/12/20 09:33:10;;;;;;;4.67;1.80;;;10.50;99.90;;;;;;5076351;28;20636;-82
2022/12/20 09:35:35;;;;;;;2.17;1.83;;;10.50;99.90;;;;;;5060068;28;20192;-83
2022/12/20 09:38:02;;;;;;;2.33;2.13;;;10.50;99.90;;;;;;5076235;28;20632;-82
2022/12/20 09:40:31;;;;;;;5.25;2.83;;;10.50;99.90;;;;;;5059913;28;20207;-82
2022/12/20 09:42:57;;;;;;;7.07;3.65;;;10.60;99.90;;;;;;5094430;28;20180;-83
2022/12/20 09:45:31;;;;;;;6.93;3.10;;;10.60;99.90;;;;;;5076330;28;20188;-82
2022/12/20 09:47:56;;;;;;;6.28;3.20;;;10.60;99.90;;;;;;5091451;28;20172;-83
2022/12/20 09:50:53;;;;;;;5.60;3.57;;;10.60;99.90;;;;;;5072719;28;20183;-85
2022/12/20 09:53:28;;;;;;;7.13;3.88;;;10.60;99.90;;;;;;5075484;28;20207;-83
2022/12/20 09:56:00;;;;;;;7.45;3.80;;;10.70;99.90;;;;;;5094662;28;20167;-83
2022/12/20 09:58:40;;;;;;;6.55;3.40;;;10.70;99.90;;;;;;5094357;28;20165;-84
2022/12/20 10:01:23;;;;;;;7.47;3.35;;;10.70;99.90;;;;;;5076586;28;20176;-83
2022/12/20 10:03:50;;;;;;;4.10;2.53;;;10.70;99.90;;;;;;5095792;28;20267;-82
2022/12/20 10:06:19;;;;;;;8.25;4.78;;;10.70;99.90;;;;;;5094058;28;20603;-83
2022/12/20 10:08:57;;;;;;;5.32;3.22;;;10.80;99.90;;;;;;5094174;28;20176;-83
2022/12/20 10:11:33;;;;;;;3.60;2.80;;;10.80;99.90;;;;;;5094518;28;20222;-82
2022/12/20 10:14:33;;;;;;;2.60;2.40;;;10.80;99.90;;;;;;5095617;28;20204;-85
2022/12/20 10:17:07;;;;;;;6.60;3.55;;;10.90;99.90;;;;;;5095294;28;20210;-84
2022/12/20 10:19:55;;;;;;;3.80;2.90;;;10.90;99.90;;;;;;5076712;28;20241;-83
2022/12/20 10:22:27;;;;;;;6.13;3.03;;;10.90;99.90;;;;;;5076778;28;20314;-85
2022/12/20 10:25:21;;;;;;;6.05;2.75;;;10.90;99.90;;;;;;5093765;28;20175;-84
2022/12/20 10:27:50;;;;;;;3.13;1.80;;;11.00;99.90;;;;;;5092025;28;20661;-83
2022/12/20 10:30:20;;;;;;;4.15;2.20;;;11.00;99.90;;;;;;5097260;28;20172;-82
2022/12/20 10:32:51;;;;;;;2.08;1.88;;;11.10;99.90;;;;;;5079420;28;20180;-84
2022/12/20 10:35:27;;;;;;;3.90;2.42;;;11.10;99.90;;;;;;5097348;28;20224;-82
2022/12/20 10:38:11;;;;;;;3.70;2.85;;;11.20;99.90;;;;;;5097752;28;20528;-83
2022/12/20 10:40:40;;;;;;;3.53;1.83;;;11.20;99.90;;;;;;5097385;28;20708;-83
2022/12/20 10:43:20;;;;;;;3.08;2.10;;;11.30;99.90;;;;;;5097307;28;20176;-83
2022/12/20 10:46:05;;;;;;;3.00;2.03;;;11.30;99.90;;;;;;5079474;28;20309;-85
2022/12/20 10:48:32;;;;;;;2.30;1.73;;;11.30;99.90;;;;;;5097232;28;20190;-83
2022/12/20 10:51:08;;;;;;;5.97;2.00;;;11.30;99.90;;;;;;5079028;28;20188;-87
2022/12/20 10:53:35;;;;;;;1.90;1.65;;;11.30;99.90;;;;;;5097340;28;20228;-83
2022/12/20 10:56:21;;;;;;;3.72;1.88;;;11.40;99.90;;;;;;5078729;28;20195;-83
2022/12/20 10:58:54;;;;;;;4.95;2.10;;;11.50;99.90;;;;;;5079293;28;20206;-83
2022/12/20 11:01:22;;;;;;;3.50;1.50;;;11.50;99.90;;;;;;5079285;28;20180;-83
2022/12/20 11:04:21;;;;;;;3.58;2.10;;;11.60;99.90;;;;;;5097196;28;20184;-83
2022/12/20 11:06:47;;;;;;;4.10;3.42;;;11.60;99.90;;;;;;5072951;28;20753;-84
2022/12/20 11:09:36;;;;;;;2.63;2.10;;;11.60;99.90;;;;;;5076643;28;20205;-83
2022/12/20 11:12:20;;;;;;;2.45;2.13;;;11.60;99.90;;;;;;5076820;28;20520;-84
2022/12/20 11:14:47;;;;;;;5.10;2.67;;;11.60;99.90;;;;;;5076224;28;20254;-83
2022/12/20 11:17:13;;;;;;;3.20;2.50;;;11.60;99.90;;;;;;5058272;28;20606;-83
2022/12/20 11:20:03;;;;;;;2.90;1.60;;;11.60;99.90;;;;;;5058534;28;20188;-83
2022/12/20 11:23:07;;;;;;;3.77;2.10;;;11.70;99.90;;;;;;5076534;28;20177;-83
2022/12/20 11:25:32;;;;;;;2.35;1.80;;;11.70;99.90;;;;;;5062263;28;20414;-83
2022/12/20 11:28:09;;;;;;;1.97;1.63;;;11.70;99.90;;;;;;5076338;28;20181;-85
2022/12/20 11:30:38;;;;;;;2.60;2.00;;;11.70;99.90;;;;;;5076290;28;20173;-83
2022/12/20 11:33:03;;;;;;;4.00;1.97;;;11.80;99.90;;;;;;5058127;28;20238;-83
2022/12/20 11:35:41;;;;;;;3.13;1.70;;;11.80;99.90;;;;;;5075825;28;20451;-83
2022/12/20 11:38:34;;;;;;;3.10;1.70;;;11.80;99.90;;;;;;5057952;28;20204;-83
2022/12/20 11:41:19;;;;;;;2.15;1.50;;;11.80;99.90;;;;;;5075847;28;20940;-83
2022/12/20 11:44:08;;;;;;;4.37;2.20;;;11.90;99.90;;;;;;5075690;28;20698;-82
2022/12/20 11:47:08;;;;;;;3.70;1.90;;;11.80;99.90;;;;;;5058070;28;20462;-82
2022/12/20 11:50:02;;;;;;;2.88;1.98;;;11.90;99.90;;;;;;5075745;28;20407;-83
2022/12/20 11:52:36;;;;;;;3.05;1.40;;;12.00;99.90;;;;;;5057865;28;20583;-82
2022/12/20 11:55:20;;;;;;;3.47;2.03;;;12.00;99.90;;;;;;5057696;28;20247;-87
2022/12/20 11:57:53;;;;;;;2.55;1.52;;;12.00;99.90;;;;;;5057801;28;20412;-85
2022/12/20 12:00:21;;;;;;;3.13;1.60;;;12.00;99.90;;;;;;5057266;28;20632;-83
2022/12/20 12:03:17;;;;;;;5.22;1.48;;;12.00;99.90;;;;;;5075116;28;20918;-84
2022/12/20 12:05:53;;;;;;;3.30;1.77;;;12.00;99.90;;;;;;5075549;28;20212;-82
2022/12/20 12:08:30;;;;;;;9.57;1.98;;;12.20;99.90;;;;;;5075301;28;20254;-83
2022/12/20 12:11:01;;;;;;;2.17;1.85;;;12.30;99.90;;;;;;5077687;28;20190;-83
2022/12/20 12:13:34;;;;;;;2.85;1.50;;;12.30;99.90;;;;;;5077313;28;20620;-83
2022/12/20 12:16:15;;;;;;;4.32;2.20;;;12.40;99.90;;;;;;5095527;28;20184;-83
2022/12/20 12:18:41;;;;;;;6.68;2.80;;;12.40;99.90;;;;;;5095575;28;20519;-83
2022/12/20 12:21:10;;;;;;;5.03;2.90;;;12.40;99.90;;;;;;5060688;28;20640;-84
2022/12/20 12:24:02;;;;;;;4.45;2.95;;;12.40;99.90;;;;;;5095088;28;20186;-83
2022/12/20 12:26:28;;;;;;;5.18;3.42;;;12.40;99.90;;;;;;5094696;28;20239;-84
2022/12/20 12:28:59;;;;;;;4.93;3.10;;;12.40;99.90;;;;;;5077055;28;20270;-84
2022/12/20 12:31:40;;;;;;;1.58;1.42;;;12.40;99.90;;;;;;5095198;28;20414;-83
2022/12/20 12:34:24;;;;;;;4.90;2.72;;;12.40;99.90;;;;;;5094707;28;20260;-84
2022/12/20 12:37:11;;;;;;;3.30;2.40;;;12.40;99.90;;;;;;5076179;28;20275;-83
2022/12/20 12:39:46;;;;;;;2.10;1.30;;;12.40;99.90;;;;;;5077004;28;20180;-84
2022/12/20 12:42:20;;;;;;;3.93;2.90;;;12.40;99.90;;;;;;5095317;28;20390;-83
2022/12/20 12:44:59;;;;;;;2.90;1.60;;;12.30;99.90;;;;;;5095194;28;20425;-83
2022/12/20 12:47:36;;;;;;;2.13;1.63;;;12.30;99.90;;;;;;5076776;28;20746;-84
2022/12/20 12:50:06;;;;;;;2.80;2.10;;;12.30;99.90;;;;;;5094799;28;20449;-83
2022/12/20 12:53:01;;;;;;;3.27;2.20;;;12.30;99.90;;;;;;5076683;28;20928;-83
2022/12/20 12:55:38;;;;;;;2.22;1.65;;;12.30;99.90;;;;;;5075780;28;20476;-84
2022/12/20 12:58:23;;;;;;;2.90;1.90;;;12.20;99.90;;;;;;5077115;28;20527;-83
2022/12/20 13:00:52;;;;;;;3.55;1.55;;;12.20;99.90;;;;;;5076613;28;20918;-84
2022/12/20 13:03:52;;;;;;;3.73;1.33;;;12.20;99.90;;;;;;5076279;28;20184;-84
2022/12/20 13:06:24;;;;;;;7.13;1.80;;;12.20;99.90;;;;;;5091107;28;20428;-85
2022/12/20 13:08:55;;;;;;;3.00;1.50;;;12.20;99.90;;;;;;5051364;28;20251;-85
2022/12/20 13:11:30;;;;;;;3.30;1.23;;;12.20;99.90;;;;;;5068305;28;20263;-84
2022/12/20 13:14:23;;;;;;;2.70;1.30;;;12.20;99.90;;;;;;5070025;28;20294;-84